createdAt,value
2023-03-30T00:01:10.016Z,11.61
2023-03-30T00:03:40.114Z,11.61
2023-03-30T00:06:09.058Z,11.61
2023-03-30T00:08:37.050Z,11.68
2023-03-30T00:11:05.766Z,11.67
2023-03-30T00:13:34.562Z,11.75
2023-03-30T00:16:02.616Z,11.78
2023-03-30T00:18:30.755Z,11.81
2023-03-30T00:21:00.346Z,11.87
2023-03-30T00:23:28.226Z,11.85
2023-03-30T00:25:56.382Z,11.85
2023-03-30T00:28:25.118Z,11.88
2023-03-30T00:30:53.647Z,11.89
2023-03-30T00:33:30.278Z,11.89
2023-03-30T00:36:07.797Z,11.93
2023-03-30T00:38:35.743Z,11.96
2023-03-30T00:41:04.072Z,12.02
2023-03-30T00:43:33.605Z,12.05
2023-03-30T00:46:01.716Z,12.08
2023-03-30T00:48:30.783Z,12.03
2023-03-30T00:51:00.921Z,12.13
2023-03-30T00:53:32.225Z,12.01
2023-03-30T00:56:00.567Z,12.02
2023-03-30T00:58:28.500Z,11.96
2023-03-30T01:00:58.255Z,11.94
2023-03-30T01:03:29.649Z,11.93
2023-03-30T01:05:58.220Z,11.98
2023-03-30T01:08:27.362Z,11.93
2023-03-30T01:10:56.707Z,11.99
2023-03-30T01:13:24.600Z,12.04
2023-03-30T01:16:06.143Z,11.99
2023-03-30T01:18:41.098Z,12.04
2023-03-30T01:21:42.614Z,12.10
2023-03-30T01:24:36.635Z,12.07
2023-03-30T01:27:09.832Z,12.16
2023-03-30T01:29:43.368Z,12.13
2023-03-30T01:32:31.732Z,12.17
2023-03-30T01:35:19.253Z,12.11
2023-03-30T01:38:44.236Z,12.19
2023-03-30T01:41:15.851Z,12.26
2023-03-30T01:43:48.218Z,12.36
2023-03-30T01:46:20.102Z,12.42
2023-03-30T01:48:50.625Z,12.43
2023-03-30T01:51:21.037Z,12.47
2023-03-30T01:53:51.562Z,12.51
2023-03-30T01:56:22.398Z,12.54
2023-03-30T01:58:51.235Z,12.60
2023-03-30T02:01:20.674Z,12.65
2023-03-30T02:03:50.128Z,12.70
2023-03-30T02:06:20.564Z,12.79
2023-03-30T02:08:49.645Z,12.73
2023-03-30T02:11:17.538Z,12.76
2023-03-30T02:13:47.422Z,12.83
2023-03-30T02:16:16.859Z,12.87
2023-03-30T02:18:44.937Z,12.80
2023-03-30T02:21:13.134Z,12.82
2023-03-30T02:23:44.018Z,12.84
2023-03-30T02:26:12.245Z,12.81
2023-03-30T02:28:40.254Z,12.91
2023-03-30T02:31:12.812Z,12.90
2023-03-30T02:33:45.042Z,12.94
2023-03-30T02:36:23.942Z,12.97
2023-03-30T02:38:59.773Z,13.03
2023-03-30T02:41:40.897Z,13.02
2023-03-30T02:44:11.452Z,13.13
2023-03-30T02:46:55.113Z,13.10
2023-03-30T02:49:25.785Z,13.17
2023-03-30T02:51:54.244Z,13.10
2023-03-30T02:54:31.219Z,13.14
2023-03-30T02:57:03.795Z,13.07
2023-03-30T02:59:33.610Z,13.18
2023-03-30T03:02:05.588Z,13.11
2023-03-30T03:04:34.311Z,13.19
2023-03-30T03:07:02.677Z,13.21
2023-03-30T03:09:30.753Z,13.12
2023-03-30T03:11:58.963Z,13.14
2023-03-30T03:14:27.165Z,13.25
2023-03-30T03:16:55.723Z,13.22
2023-03-30T03:19:25.682Z,13.26
2023-03-30T03:21:53.549Z,13.25
2023-03-30T03:24:21.745Z,13.22
2023-03-30T03:26:50.167Z,13.30
2023-03-30T03:29:18.581Z,13.31
2023-03-30T03:31:46.492Z,13.24
2023-03-30T03:34:14.736Z,13.27
2023-03-30T03:36:46.654Z,13.38
2023-03-30T03:39:14.531Z,13.33
2023-03-30T03:41:42.470Z,13.26
2023-03-30T03:44:10.732Z,13.29
2023-03-30T03:46:44.292Z,13.30
2023-03-30T03:49:12.440Z,13.33
2023-03-30T03:51:40.501Z,13.30
2023-03-30T03:54:09.786Z,13.31
2023-03-30T03:56:37.686Z,13.22
2023-03-30T03:59:05.647Z,13.12
2023-03-30T04:01:34.061Z,13.06
2023-03-30T04:04:02.192Z,13.18
2023-03-30T04:06:30.132Z,13.07
2023-03-30T04:08:58.047Z,13.10
2023-03-30T04:11:27.734Z,13.09
2023-03-30T04:13:55.795Z,13.13
2023-03-30T04:16:30.336Z,13.10
2023-03-30T04:18:59.900Z,13.16
2023-03-30T04:21:29.873Z,13.09
2023-03-30T04:24:02.993Z,13.17
2023-03-30T04:26:38.702Z,13.07
2023-03-30T04:29:12.152Z,13.11
2023-03-30T04:31:48.371Z,13.02
2023-03-30T04:34:23.325Z,13.10
2023-03-30T04:36:51.514Z,13.13
2023-03-30T04:39:20.916Z,13.09
2023-03-30T04:41:52.325Z,13.10
2023-03-30T04:44:21.371Z,13.12
2023-03-30T04:46:49.845Z,13.08
2023-03-30T04:49:17.994Z,13.02
2023-03-30T04:51:46.120Z,13.07
2023-03-30T04:54:14.151Z,13.07
2023-03-30T04:56:42.618Z,13.14
2023-03-30T04:59:12.084Z,13.12
2023-03-30T05:01:40.354Z,13.19
2023-03-30T05:04:09.413Z,13.17
2023-03-30T05:06:37.840Z,13.05
2023-03-30T05:09:06.943Z,13.19
2023-03-30T05:11:49.494Z,13.21
2023-03-30T05:14:18.904Z,13.27
2023-03-30T05:16:47.311Z,13.28
2023-03-30T05:19:16.054Z,13.42
2023-03-30T05:21:48.238Z,13.46
2023-03-30T05:24:16.750Z,13.44
2023-03-30T05:26:44.964Z,13.41
2023-03-30T05:29:13.630Z,13.40
2023-03-30T05:31:54.143Z,13.46
2023-03-30T05:34:22.263Z,13.43
2023-03-30T05:36:55.755Z,13.37
2023-03-30T05:39:30.327Z,13.44
2023-03-30T05:41:58.441Z,13.44
2023-03-30T05:44:26.455Z,13.47
2023-03-30T05:46:55.828Z,13.49
2023-03-30T05:49:24.094Z,13.55
2023-03-30T05:51:54.727Z,13.54
2023-03-30T05:54:22.926Z,13.50
2023-03-30T05:56:52.495Z,13.59
2023-03-30T05:59:21.993Z,13.59
2023-03-30T06:01:52.414Z,13.55
2023-03-30T06:04:28.315Z,13.56
2023-03-30T06:06:56.588Z,13.44
2023-03-30T06:09:26.338Z,13.47
2023-03-30T06:11:54.309Z,13.48
2023-03-30T06:14:22.200Z,13.54
2023-03-30T06:16:50.468Z,13.49
2023-03-30T06:19:18.444Z,13.49
2023-03-30T06:21:48.718Z,13.52
2023-03-30T06:24:16.832Z,13.53
2023-03-30T06:26:44.804Z,13.47
2023-03-30T06:29:13.266Z,13.47
2023-03-30T06:31:41.305Z,13.55
2023-03-30T06:34:09.451Z,13.48
2023-03-30T06:36:44.504Z,13.48
2023-03-30T06:39:15.768Z,13.33
2023-03-30T06:41:43.731Z,13.39
2023-03-30T06:44:14.836Z,13.48
2023-03-30T06:46:42.875Z,13.44
2023-03-30T06:49:12.949Z,13.45
2023-03-30T06:51:42.013Z,13.36
2023-03-30T06:54:10.044Z,13.43
2023-03-30T06:56:39.370Z,13.45
2023-03-30T06:59:07.594Z,13.46
2023-03-30T07:01:38.714Z,13.55
2023-03-30T07:04:11.141Z,13.64
2023-03-30T07:06:39.143Z,13.70
2023-03-30T07:09:08.050Z,13.86
2023-03-30T07:11:36.027Z,14.05
2023-03-30T07:14:06.143Z,13.95
2023-03-30T07:16:34.223Z,13.89
2023-03-30T07:19:02.415Z,14.04
2023-03-30T07:21:30.643Z,14.00
2023-03-30T07:24:01.212Z,13.97
2023-03-30T07:26:29.257Z,14.06
2023-03-30T07:28:57.449Z,14.08
2023-03-30T07:31:27.394Z,14.17
2023-03-30T07:33:55.305Z,14.13
2023-03-30T07:36:23.266Z,14.13
2023-03-30T07:38:52.007Z,14.19
2023-03-30T07:41:20.036Z,14.22
2023-03-30T07:44:31.834Z,14.26
2023-03-30T07:47:28.385Z,14.21
2023-03-30T07:49:56.445Z,14.19
2023-03-30T07:52:24.681Z,14.17
2023-03-30T07:54:54.869Z,14.18
2023-03-30T07:57:22.971Z,14.14
2023-03-30T07:59:51.530Z,14.26
2023-03-30T08:02:20.852Z,13.95
2023-03-30T08:04:49.053Z,13.97
2023-03-30T08:07:17.821Z,13.86
2023-03-30T08:09:46.331Z,14.02
2023-03-30T08:12:14.273Z,14.07
2023-03-30T08:14:42.179Z,14.04
2023-03-30T08:17:10.383Z,14.01
2023-03-30T08:19:39.664Z,14.13
2023-03-30T08:22:07.769Z,14.25
2023-03-30T08:24:35.959Z,14.17
2023-03-30T08:27:04.191Z,14.12
2023-03-30T08:29:33.723Z,14.09
2023-03-30T08:32:01.845Z,14.02
2023-03-30T08:34:30.192Z,14.07
2023-03-30T08:37:07.851Z,14.04
2023-03-30T08:39:37.125Z,12.95
2023-03-30T08:42:36.784Z,12.88
2023-03-30T08:45:07.848Z,12.50
2023-03-30T08:47:38.232Z,12.31
2023-03-30T08:50:08.612Z,12.17
2023-03-30T08:52:38.013Z,12.00
2023-03-30T08:55:06.691Z,11.93
2023-03-30T08:57:43.424Z,11.69
2023-03-30T09:00:20.724Z,11.93
2023-03-30T09:02:49.684Z,11.97
2023-03-30T09:05:22.295Z,11.90
2023-03-30T09:07:59.126Z,12.00
2023-03-30T09:10:34.773Z,12.08
2023-03-30T09:13:05.409Z,12.24
2023-03-30T09:15:36.069Z,12.25
2023-03-30T09:18:06.558Z,12.22
2023-03-30T09:20:40.954Z,12.21
2023-03-30T09:23:18.846Z,12.46
2023-03-30T09:25:49.387Z,12.31
2023-03-30T09:28:20.636Z,12.45
2023-03-30T09:30:50.490Z,12.23
2023-03-30T09:33:26.637Z,12.38
2023-03-30T09:36:01.945Z,12.44
2023-03-30T09:38:33.163Z,12.49
2023-03-30T09:41:09.513Z,12.59
2023-03-30T09:43:47.910Z,12.66
2023-03-30T09:46:16.553Z,12.91
2023-03-30T09:48:45.579Z,12.97
2023-03-30T09:51:21.171Z,13.05
2023-03-30T09:53:51.407Z,12.54
2023-03-30T09:56:22.306Z,12.26
2023-03-30T09:58:54.693Z,11.99
2023-03-30T10:01:26.921Z,11.59
2023-03-30T10:04:17.280Z,11.42
2023-03-30T10:06:49.708Z,11.35
2023-03-30T10:09:20.586Z,11.33
2023-03-30T10:11:50.036Z,11.37
2023-03-30T10:14:26.024Z,11.22
2023-03-30T10:16:56.376Z,10.99
2023-03-30T10:19:25.872Z,10.86
2023-03-30T10:21:57.814Z,10.87
2023-03-30T10:24:28.563Z,10.95
2023-03-30T10:26:58.271Z,10.72
2023-03-30T10:29:27.668Z,10.83
2023-03-30T10:31:59.296Z,10.87
2023-03-30T10:34:33.802Z,10.89
2023-03-30T10:37:01.774Z,11.01
2023-03-30T10:39:32.125Z,11.00
2023-03-30T10:42:01.197Z,11.22
2023-03-30T10:44:33.129Z,10.99
2023-03-30T10:47:08.668Z,11.13
2023-03-30T10:49:42.088Z,11.31
2023-03-30T10:52:12.191Z,11.49
2023-03-30T10:54:42.588Z,11.63
2023-03-30T10:57:12.516Z,11.79
2023-03-30T11:00:02.526Z,12.02
2023-03-30T11:02:45.057Z,12.20
2023-03-30T11:05:15.596Z,12.12
2023-03-30T11:07:46.457Z,12.09
2023-03-30T11:10:18.308Z,12.01
2023-03-30T11:12:49.267Z,12.36
2023-03-30T11:15:19.131Z,12.22
2023-03-30T11:17:54.411Z,12.21
2023-03-30T11:20:27.356Z,12.46
2023-03-30T11:23:04.929Z,12.35
2023-03-30T11:25:35.662Z,12.55
2023-03-30T11:28:10.942Z,12.60
2023-03-30T11:30:38.830Z,12.45
2023-03-30T11:33:09.777Z,12.69
2023-03-30T11:35:39.591Z,12.75
2023-03-30T11:38:15.606Z,12.73
2023-03-30T11:41:02.024Z,12.80
2023-03-30T11:43:31.762Z,12.84
2023-03-30T11:46:04.289Z,12.93
2023-03-30T11:48:58.718Z,12.98
2023-03-30T11:51:35.659Z,12.90
2023-03-30T11:54:12.200Z,13.13
2023-03-30T11:56:46.956Z,13.29
2023-03-30T11:59:18.407Z,13.41
2023-03-30T12:01:57.989Z,13.22
2023-03-30T12:04:28.345Z,13.21
2023-03-30T12:06:58.432Z,13.17
2023-03-30T12:09:27.034Z,13.56
2023-03-30T12:12:06.766Z,13.40
2023-03-30T12:14:41.605Z,13.40
2023-03-30T12:17:15.772Z,13.64
2023-03-30T12:19:55.435Z,13.59
2023-03-30T12:22:26.346Z,13.57
2023-03-30T12:24:59.207Z,13.61
2023-03-30T12:27:31.319Z,13.85
2023-03-30T12:30:13.237Z,13.81
2023-03-30T12:32:41.797Z,13.52
2023-03-30T12:35:42.879Z,13.53
2023-03-30T12:38:17.338Z,13.51
2023-03-30T12:40:47.427Z,13.35
2023-03-30T12:43:20.163Z,12.94
2023-03-30T12:45:50.084Z,13.01
2023-03-30T12:48:25.371Z,13.07
2023-03-30T12:50:59.302Z,12.71
2023-03-30T12:53:52.165Z,12.33
2023-03-30T12:56:28.341Z,11.87
2023-03-30T12:59:19.644Z,11.58
2023-03-30T13:01:58.821Z,11.31
2023-03-30T13:04:27.804Z,11.35
2023-03-30T13:06:57.839Z,11.67
2023-03-30T13:09:36.660Z,11.93
2023-03-30T13:12:21.826Z,11.90
2023-03-30T13:14:58.727Z,12.14
2023-03-30T13:17:27.254Z,12.30
2023-03-30T13:20:29.193Z,12.56
2023-03-30T13:23:03.697Z,12.73
2023-03-30T13:25:39.993Z,12.78
2023-03-30T13:28:54.968Z,13.00
2023-03-30T13:31:33.289Z,12.98
2023-03-30T13:34:03.500Z,13.21
2023-03-30T13:36:32.373Z,13.59
2023-03-30T13:39:05.106Z,13.51
2023-03-30T13:41:38.584Z,13.63
2023-03-30T13:44:13.327Z,13.79
2023-03-30T13:46:46.253Z,13.63
2023-03-30T13:49:28.275Z,13.78
2023-03-30T13:51:56.305Z,13.60
2023-03-30T13:54:26.204Z,13.46
2023-03-30T13:56:57.841Z,13.41
2023-03-30T13:59:28.781Z,13.54
2023-03-30T14:01:59.237Z,13.68
2023-03-30T14:04:31.710Z,13.31
2023-03-30T14:06:59.799Z,13.47
2023-03-30T14:09:28.752Z,13.17
2023-03-30T14:11:57.048Z,13.39
2023-03-30T14:14:28.107Z,13.18
2023-03-30T14:16:56.081Z,13.35
2023-03-30T14:19:26.774Z,13.60
2023-03-30T14:21:56.852Z,13.34
2023-03-30T14:24:29.053Z,13.51
2023-03-30T14:27:02.008Z,13.29
2023-03-30T14:29:32.516Z,13.21
2023-03-30T14:32:09.160Z,13.17
2023-03-30T14:34:39.520Z,13.65
2023-03-30T14:37:09.003Z,13.92
2023-03-30T14:39:40.520Z,13.88
2023-03-30T14:42:11.092Z,14.16
2023-03-30T14:44:39.731Z,14.05
2023-03-30T14:47:14.157Z,14.09
2023-03-30T14:49:44.922Z,14.03
2023-03-30T14:52:17.180Z,13.68
2023-03-30T14:54:57.693Z,13.88
2023-03-30T14:57:34.762Z,13.65
2023-03-30T15:00:12.321Z,13.73
2023-03-30T15:02:42.400Z,13.64
2023-03-30T15:05:12.036Z,13.51
2023-03-30T15:07:40.283Z,13.15
2023-03-30T15:10:09.400Z,13.32
2023-03-30T15:12:42.999Z,13.71
2023-03-30T15:15:17.677Z,13.75
2023-03-30T15:17:47.476Z,13.60
2023-03-30T15:20:16.791Z,13.44
2023-03-30T15:22:45.883Z,13.62
2023-03-30T15:25:14.981Z,13.74
2023-03-30T15:27:43.991Z,13.72
2023-03-30T15:30:23.842Z,13.94
2023-03-30T15:32:55.297Z,13.94
2023-03-30T15:35:25.714Z,13.89
2023-03-30T15:37:55.172Z,13.92
2023-03-30T15:40:35.610Z,14.02
2023-03-30T15:43:22.820Z,13.92
2023-03-30T15:45:55.520Z,13.78
2023-03-30T15:48:25.300Z,13.65
2023-03-30T15:50:57.605Z,13.65
2023-03-30T15:53:37.627Z,13.47
2023-03-30T15:56:07.069Z,13.42
2023-03-30T15:58:35.722Z,13.43
2023-03-30T16:01:04.881Z,13.41
2023-03-30T16:03:34.952Z,13.28
2023-03-30T16:06:05.240Z,13.37
2023-03-30T16:08:33.204Z,13.51
2023-03-30T16:11:01.089Z,13.35
2023-03-30T16:13:28.975Z,13.30
2023-03-30T16:16:00.190Z,13.29
2023-03-30T16:18:29.574Z,13.12
2023-03-30T16:20:57.522Z,13.21
2023-03-30T16:23:27.259Z,13.08
2023-03-30T16:25:55.418Z,12.95
2023-03-30T16:28:23.484Z,13.14
2023-03-30T16:30:52.951Z,13.08
2023-03-30T16:33:20.913Z,13.11
2023-03-30T16:35:48.843Z,12.98
2023-03-30T16:38:17.701Z,13.03
2023-03-30T16:40:47.821Z,13.01
2023-03-30T16:43:15.776Z,13.05
2023-03-30T16:45:44.455Z,13.23
2023-03-30T16:48:13.300Z,13.06
2023-03-30T16:50:42.259Z,13.09
2023-03-30T16:53:10.972Z,12.84
2023-03-30T16:55:39.924Z,13.07
2023-03-30T16:58:10.956Z,12.61
2023-03-30T17:00:43.213Z,12.82
2023-03-30T17:03:14.411Z,12.75
2023-03-30T17:05:46.119Z,12.71
2023-03-30T17:08:18.013Z,12.63
2023-03-30T17:10:46.913Z,12.58
2023-03-30T17:13:16.911Z,12.42
2023-03-30T17:15:45.728Z,12.50
2023-03-30T17:18:15.609Z,12.40
2023-03-30T17:20:44.596Z,12.49
2023-03-30T17:23:13.710Z,12.26
2023-03-30T17:25:46.324Z,12.38
2023-03-30T17:28:24.896Z,12.42
2023-03-30T17:31:02.561Z,12.30
2023-03-30T17:33:37.043Z,12.41
2023-03-30T17:36:06.422Z,12.35
2023-03-30T17:38:34.501Z,12.28
2023-03-30T17:41:03.416Z,12.28
2023-03-30T17:43:33.090Z,12.34
2023-03-30T17:46:01.983Z,12.21
2023-03-30T17:48:29.926Z,12.28
2023-03-30T17:50:57.861Z,12.10
2023-03-30T17:53:26.016Z,12.13
2023-03-30T17:55:54.257Z,12.02
2023-03-30T17:58:23.279Z,11.91
2023-03-30T18:00:52.985Z,12.13
2023-03-30T18:03:21.683Z,12.00
2023-03-30T18:05:50.087Z,12.16
2023-03-30T18:08:19.167Z,11.98
2023-03-30T18:10:47.982Z,12.01
2023-03-30T18:13:15.914Z,12.01
2023-03-30T18:15:45.406Z,11.90
2023-03-30T18:18:22.420Z,12.10
2023-03-30T18:20:50.730Z,12.10
2023-03-30T18:23:18.956Z,11.86
2023-03-30T18:25:46.862Z,11.94
2023-03-30T18:28:16.813Z,12.00
2023-03-30T18:30:44.821Z,11.96
2023-03-30T18:33:16.214Z,12.03
2023-03-30T18:35:44.397Z,11.99
2023-03-30T18:38:13.127Z,12.00
2023-03-30T18:40:44.244Z,11.94
2023-03-30T18:43:12.740Z,11.96
2023-03-30T18:45:41.225Z,11.94
2023-03-30T18:48:09.792Z,11.93
2023-03-30T18:50:39.726Z,11.91
2023-03-30T18:53:09.179Z,11.74
2023-03-30T18:55:38.046Z,11.73
2023-03-30T18:58:07.458Z,11.84
2023-03-30T19:00:36.363Z,11.83
2023-03-30T19:03:06.185Z,11.84
2023-03-30T19:05:34.713Z,11.80
2023-03-30T19:08:04.457Z,11.79
2023-03-30T19:10:33.419Z,11.87
2023-03-30T19:13:01.336Z,11.83
2023-03-30T19:15:30.129Z,11.76
2023-03-30T19:17:58.259Z,11.94
2023-03-30T19:20:27.013Z,11.85
2023-03-30T19:22:55.115Z,11.85
2023-03-30T19:25:25.390Z,11.91
2023-03-30T19:28:02.488Z,11.81
2023-03-30T19:30:33.093Z,11.84
2023-03-30T19:33:03.430Z,11.73
2023-03-30T19:35:31.573Z,11.71
2023-03-30T19:37:59.495Z,11.84
2023-03-30T19:40:28.784Z,11.83
2023-03-30T19:42:56.782Z,11.75
2023-03-30T19:45:24.838Z,11.91
2023-03-30T19:47:52.779Z,11.79
2023-03-30T19:50:23.279Z,11.71
2023-03-30T19:52:51.355Z,11.72
2023-03-30T19:55:19.589Z,11.82
2023-03-30T19:57:49.255Z,11.71
2023-03-30T20:00:18.247Z,11.85
2023-03-30T20:02:47.132Z,11.75
2023-03-30T20:05:15.697Z,11.70
2023-03-30T20:07:43.983Z,11.73
2023-03-30T20:10:13.546Z,11.83
2023-03-30T20:12:41.436Z,11.63
2023-03-30T20:15:11.769Z,11.76
2023-03-30T20:17:40.022Z,11.79
2023-03-30T20:20:09.342Z,11.80
2023-03-30T20:22:37.440Z,11.79
2023-03-30T20:25:06.576Z,11.71
2023-03-30T20:27:35.221Z,11.62
2023-03-30T20:30:03.296Z,11.66
2023-03-30T20:32:32.858Z,11.69
2023-03-30T20:35:00.865Z,11.77
2023-03-30T20:37:28.771Z,11.66
2023-03-30T20:40:04.167Z,11.75
2023-03-30T20:42:32.639Z,11.72
2023-03-30T20:45:01.175Z,11.61
2023-03-30T20:47:31.320Z,11.61
2023-03-30T20:50:00.821Z,11.62
2023-03-30T20:52:29.174Z,11.61
2023-03-30T20:54:57.693Z,11.64
2023-03-30T20:57:25.692Z,11.70
2023-03-30T20:59:54.186Z,11.51
2023-03-30T21:02:22.273Z,11.60
2023-03-30T21:04:50.611Z,11.56
2023-03-30T21:07:19.941Z,11.56
2023-03-30T21:09:47.974Z,11.52
2023-03-30T21:12:16.303Z,11.39
2023-03-30T21:14:45.850Z,11.43
2023-03-30T21:17:13.843Z,11.35
2023-03-30T21:19:42.110Z,11.27
2023-03-30T21:22:09.960Z,11.25
2023-03-30T21:24:39.222Z,11.17
2023-03-30T21:27:07.164Z,11.24
2023-03-30T21:29:35.072Z,11.21
2023-03-30T21:32:03.043Z,11.07
2023-03-30T21:34:31.891Z,11.13
2023-03-30T21:37:00.612Z,11.13
2023-03-30T21:39:29.352Z,11.05
2023-03-30T21:41:59.070Z,11.02
2023-03-30T21:44:26.913Z,10.97
2023-03-30T21:46:54.987Z,10.88
2023-03-30T21:49:23.100Z,10.92
2023-03-30T21:51:52.033Z,10.91
2023-03-30T21:54:20.296Z,10.74
2023-03-30T21:56:48.523Z,10.73
2023-03-30T21:59:18.881Z,10.66
2023-03-30T22:01:46.771Z,10.59
2023-03-30T22:04:17.617Z,10.59
2023-03-30T22:06:45.855Z,10.58
2023-03-30T22:09:13.969Z,10.45
2023-03-30T22:11:42.567Z,10.51
2023-03-30T22:14:10.488Z,10.36
2023-03-30T22:16:39.955Z,10.36
2023-03-30T22:19:08.111Z,10.43
2023-03-30T22:21:36.299Z,10.30
2023-03-30T22:24:04.478Z,10.30
2023-03-30T22:26:32.502Z,10.33
2023-03-30T22:29:00.664Z,10.39
2023-03-30T22:31:28.813Z,10.37
2023-03-30T22:33:58.197Z,10.36
2023-03-30T22:36:29.862Z,10.42
2023-03-30T22:38:58.094Z,10.47
2023-03-30T22:41:26.589Z,10.49
2023-03-30T22:43:56.247Z,10.47
2023-03-30T22:46:24.505Z,10.57
2023-03-30T22:48:55.878Z,10.55
2023-03-30T22:51:26.553Z,10.65
2023-03-30T22:53:56.070Z,10.64
2023-03-30T22:56:24.270Z,10.72
2023-03-30T22:58:52.459Z,10.65
2023-03-30T23:01:21.580Z,10.71
2023-03-30T23:03:50.620Z,10.66
2023-03-30T23:06:19.667Z,10.70
2023-03-30T23:08:49.527Z,10.70
2023-03-30T23:11:17.561Z,10.70
2023-03-30T23:13:46.124Z,10.53
2023-03-30T23:16:14.028Z,10.60
2023-03-30T23:18:42.137Z,10.61
2023-03-30T23:21:10.869Z,10.60
2023-03-30T23:23:38.915Z,10.62
2023-03-30T23:26:09.692Z,10.58
2023-03-30T23:28:38.985Z,10.62
2023-03-30T23:31:10.672Z,10.62
2023-03-30T23:33:38.654Z,10.58
2023-03-30T23:36:07.613Z,10.61
2023-03-30T23:38:36.042Z,10.55
2023-03-30T23:41:04.140Z,10.45
2023-03-30T23:43:33.502Z,10.34
2023-03-30T23:46:01.627Z,10.43
2023-03-30T23:48:29.668Z,10.39
2023-03-30T23:50:57.631Z,10.25
2023-03-30T23:53:26.479Z,10.23
2023-03-30T23:55:54.687Z,10.22
2023-03-30T23:58:22.989Z,10.22
